createdAt,value
2022-12-25T00:02:05.426Z,16.40
2022-12-25T00:04:28.408Z,13.43
2022-12-25T00:06:51.331Z,15.10
2022-12-25T00:09:14.075Z,17.67
2022-12-25T00:11:38.747Z,15.17
2022-12-25T00:14:01.349Z,12.00
2022-12-25T00:16:24.858Z,15.00
2022-12-25T00:18:47.988Z,16.57
2022-12-25T00:21:11.468Z,16.37
2022-12-25T00:23:34.691Z,13.13
2022-12-25T00:25:57.323Z,17.43
2022-12-25T00:28:20.293Z,18.43
2022-12-25T00:30:42.636Z,18.27
2022-12-25T00:33:04.862Z,11.97
2022-12-25T00:35:27.142Z,16.10
2022-12-25T00:37:49.341Z,13.17
2022-12-25T00:40:11.780Z,11.67
2022-12-25T00:42:33.956Z,12.60
2022-12-25T00:44:56.292Z,15.13
2022-12-25T00:47:19.044Z,9.77
2022-12-25T00:49:41.561Z,15.40
2022-12-25T00:52:04.107Z,16.10
2022-12-25T00:54:26.326Z,16.43
2022-12-25T00:56:48.729Z,11.57
2022-12-25T00:59:11.701Z,16.97
2022-12-25T01:01:34.267Z,13.43
2022-12-25T01:03:56.632Z,11.77
2022-12-25T01:06:18.820Z,11.57
2022-12-25T01:09:04.834Z,8.83
2022-12-25T01:11:27.298Z,7.57
2022-12-25T01:13:49.734Z,14.00
2022-12-25T01:16:12.497Z,11.27
2022-12-25T01:18:35.196Z,10.30
2022-12-25T01:20:57.385Z,10.57
2022-12-25T01:23:19.752Z,11.93
2022-12-25T01:25:41.922Z,10.57
2022-12-25T01:28:04.209Z,9.13
2022-12-25T01:30:26.506Z,13.07
2022-12-25T01:32:48.757Z,16.10
2022-12-25T01:35:12.011Z,11.47
2022-12-25T01:37:34.251Z,11.43
2022-12-25T01:39:56.662Z,12.17
2022-12-25T01:42:19.958Z,11.87
2022-12-25T01:44:48.595Z,15.40
2022-12-25T01:47:11.316Z,11.37
2022-12-25T01:49:38.374Z,11.70
2022-12-25T01:52:06.158Z,15.40
2022-12-25T01:54:30.420Z,12.37
2022-12-25T01:56:54.364Z,12.97
2022-12-25T01:59:18.675Z,15.13
2022-12-25T02:01:41.149Z,10.77
2022-12-25T02:04:06.456Z,9.10
2022-12-25T02:06:30.647Z,9.00
2022-12-25T02:08:52.985Z,10.50
2022-12-25T02:11:35.225Z,12.70
2022-12-25T02:13:57.537Z,13.97
2022-12-25T02:16:22.287Z,10.30
2022-12-25T02:18:47.363Z,12.50
2022-12-25T02:21:28.101Z,17.03
2022-12-25T02:24:08.690Z,14.50
2022-12-25T02:26:41.525Z,16.57
2022-12-25T02:29:06.498Z,11.37
2022-12-25T02:31:41.272Z,10.33
2022-12-25T02:34:03.589Z,10.10
2022-12-25T02:36:28.094Z,12.37
2022-12-25T02:39:11.330Z,14.53
2022-12-25T02:41:37.710Z,12.43
2022-12-25T02:44:19.471Z,12.17
2022-12-25T02:47:00.666Z,10.77
2022-12-25T02:49:43.270Z,9.80
2022-12-25T02:52:36.033Z,11.67
2022-12-25T02:55:21.168Z,11.17
2022-12-25T02:58:06.651Z,10.87
2022-12-25T03:00:47.951Z,17.90
2022-12-25T03:03:29.779Z,10.80
2022-12-25T03:06:12.150Z,14.20
2022-12-25T03:08:40.968Z,10.77
2022-12-25T03:11:23.583Z,14.83
2022-12-25T03:13:47.444Z,14.50
2022-12-25T03:16:28.645Z,9.53
2022-12-25T03:18:51.124Z,13.83
2022-12-25T03:21:32.061Z,12.83
2022-12-25T03:24:15.421Z,13.07
2022-12-25T03:26:56.145Z,14.77
2022-12-25T03:29:37.177Z,15.83
2022-12-25T03:32:10.448Z,12.97
2022-12-25T03:35:06.595Z,14.37
2022-12-25T03:38:16.963Z,15.90
2022-12-25T03:41:09.642Z,12.30
2022-12-25T03:43:58.101Z,16.20
2022-12-25T03:46:40.286Z,11.23
2022-12-25T03:49:26.700Z,12.00
2022-12-25T03:52:08.875Z,12.87
2022-12-25T03:54:50.315Z,11.23
2022-12-25T03:57:32.263Z,15.23
2022-12-25T04:00:13.397Z,13.97
2022-12-25T04:02:54.979Z,11.27
2022-12-25T04:05:35.840Z,12.53
2022-12-25T04:08:16.760Z,11.50
2022-12-25T04:10:57.713Z,12.73
2022-12-25T04:13:38.552Z,12.10
2022-12-25T04:16:19.716Z,14.83
2022-12-25T04:19:00.688Z,8.93
2022-12-25T04:21:41.586Z,12.13
2022-12-25T04:24:22.548Z,9.47
2022-12-25T04:27:03.356Z,15.27
2022-12-25T04:29:44.290Z,9.27
2022-12-25T04:32:25.194Z,9.57
2022-12-25T04:35:06.412Z,10.97
2022-12-25T04:37:28.665Z,10.57
2022-12-25T04:39:51.043Z,9.53
2022-12-25T04:42:13.254Z,9.37
2022-12-25T04:44:35.499Z,10.57
2022-12-25T04:46:57.752Z,9.70
2022-12-25T04:49:20.012Z,13.60
2022-12-25T04:51:42.419Z,10.23
2022-12-25T04:54:04.736Z,9.57
2022-12-25T04:56:26.910Z,9.20
2022-12-25T04:58:49.518Z,10.30
2022-12-25T05:01:12.320Z,11.20
2022-12-25T05:03:34.896Z,9.67
2022-12-25T05:05:57.283Z,10.00
2022-12-25T05:08:19.535Z,10.23
2022-12-25T05:10:46.455Z,9.13
2022-12-25T05:13:08.742Z,12.07
2022-12-25T05:15:30.957Z,7.70
2022-12-25T05:17:53.351Z,9.27
2022-12-25T05:20:15.624Z,10.93
2022-12-25T05:22:37.894Z,6.87
2022-12-25T05:25:00.078Z,8.43
2022-12-25T05:27:22.354Z,10.30
2022-12-25T05:29:44.736Z,7.07
2022-12-25T05:32:07.011Z,7.40
2022-12-25T05:34:29.241Z,9.47
2022-12-25T05:36:51.480Z,7.77
2022-12-25T05:39:13.695Z,8.87
2022-12-25T05:41:35.903Z,16.33
2022-12-25T05:43:58.609Z,6.73
2022-12-25T05:46:22.009Z,9.90
2022-12-25T05:48:44.927Z,9.53
2022-12-25T05:51:09.855Z,7.63
2022-12-25T05:53:32.459Z,9.30
2022-12-25T05:55:55.265Z,7.70
2022-12-25T05:58:17.891Z,7.63
2022-12-25T06:00:40.678Z,8.63
2022-12-25T06:03:03.435Z,8.37
2022-12-25T06:05:26.790Z,8.10
2022-12-25T06:07:49.712Z,8.50
2022-12-25T06:10:12.694Z,11.23
2022-12-25T06:12:35.939Z,7.33
2022-12-25T06:14:58.481Z,8.27
2022-12-25T06:17:21.586Z,8.93
2022-12-25T06:19:44.393Z,8.50
2022-12-25T06:22:12.859Z,10.63
2022-12-25T06:24:35.576Z,7.13
2022-12-25T06:27:01.312Z,8.63
2022-12-25T06:29:26.425Z,4.40
2022-12-25T06:31:49.427Z,7.03
2022-12-25T06:34:12.839Z,8.43
2022-12-25T06:36:35.481Z,9.27
2022-12-25T06:39:00.795Z,6.90
2022-12-25T06:41:27.627Z,8.47
2022-12-25T06:44:15.872Z,4.63
2022-12-25T06:46:38.941Z,6.23
2022-12-25T06:49:01.993Z,7.73
2022-12-25T06:51:27.969Z,9.43
2022-12-25T06:54:01.293Z,8.47
2022-12-25T06:56:25.384Z,7.20
2022-12-25T06:59:08.095Z,6.73
2022-12-25T07:01:41.841Z,7.60
2022-12-25T07:04:12.413Z,11.00
2022-12-25T07:06:35.151Z,6.70
2022-12-25T07:08:57.821Z,8.10
2022-12-25T07:11:21.881Z,7.03
2022-12-25T07:13:44.512Z,8.50
2022-12-25T07:16:10.562Z,8.43
2022-12-25T07:18:33.294Z,7.23
2022-12-25T07:21:02.627Z,6.47
2022-12-25T07:23:25.130Z,10.13
2022-12-25T07:25:56.878Z,6.67
2022-12-25T07:28:19.427Z,9.93
2022-12-25T07:30:41.908Z,6.37
2022-12-25T07:33:04.529Z,10.33
2022-12-25T07:35:26.954Z,8.53
2022-12-25T07:37:49.735Z,6.00
2022-12-25T07:40:12.332Z,8.70
2022-12-25T07:42:34.947Z,7.60
2022-12-25T07:44:57.330Z,10.43
2022-12-25T07:47:19.839Z,6.03
2022-12-25T07:49:42.504Z,5.87
2022-12-25T07:52:05.221Z,5.97
2022-12-25T07:54:27.584Z,6.87
2022-12-25T07:56:53.648Z,7.37
2022-12-25T07:59:16.389Z,12.63
2022-12-25T08:01:39.048Z,8.57
2022-12-25T08:04:03.046Z,10.20
2022-12-25T08:06:30.033Z,7.57
2022-12-25T08:08:52.474Z,6.53
2022-12-25T08:11:15.097Z,9.07
2022-12-25T08:13:38.177Z,6.10
2022-12-25T08:16:01.384Z,6.80
2022-12-25T08:18:29.397Z,8.40
2022-12-25T08:20:52.290Z,9.53
2022-12-25T08:23:14.630Z,6.90
2022-12-25T08:25:36.858Z,8.40
2022-12-25T08:28:00.549Z,7.77
2022-12-25T08:30:22.851Z,7.47
2022-12-25T08:32:45.155Z,10.27
2022-12-25T08:35:07.693Z,7.10
2022-12-25T08:37:30.563Z,6.93
2022-12-25T08:39:53.363Z,7.77
2022-12-25T08:42:15.499Z,7.80
2022-12-25T08:44:37.808Z,10.30
2022-12-25T08:47:00.055Z,10.03
2022-12-25T08:49:22.374Z,8.30
2022-12-25T08:51:45.762Z,9.17
2022-12-25T08:54:07.959Z,7.90
2022-12-25T08:56:30.311Z,10.10
2022-12-25T08:58:52.939Z,9.63
2022-12-25T09:01:15.435Z,9.73
2022-12-25T09:03:37.918Z,8.03
2022-12-25T09:06:07.234Z,9.27
2022-12-25T09:08:29.523Z,7.23
2022-12-25T09:10:51.880Z,10.47
2022-12-25T09:13:14.672Z,9.13
2022-12-25T09:15:38.842Z,8.20
2022-12-25T09:18:01.203Z,8.57
2022-12-25T09:20:23.492Z,10.40
2022-12-25T09:22:45.765Z,6.97
2022-12-25T09:25:08.118Z,8.23
2022-12-25T09:27:30.559Z,11.23
2022-12-25T09:29:52.830Z,9.03
2022-12-25T09:32:15.219Z,12.13
2022-12-25T09:34:37.707Z,7.77
2022-12-25T09:37:00.218Z,10.43
2022-12-25T09:39:23.378Z,9.13
2022-12-25T09:41:51.743Z,7.73
2022-12-25T09:44:28.380Z,8.43
2022-12-25T09:46:52.282Z,10.70
2022-12-25T09:49:18.429Z,5.43
2022-12-25T09:51:41.434Z,9.20
2022-12-25T09:54:24.032Z,7.53
2022-12-25T09:56:46.576Z,6.17
2022-12-25T09:59:16.191Z,8.27
2022-12-25T10:01:50.845Z,6.23
2022-12-25T10:04:36.042Z,6.70
2022-12-25T10:07:09.319Z,9.40
2022-12-25T10:09:52.126Z,5.87
2022-12-25T10:12:17.257Z,7.77
2022-12-25T10:15:01.673Z,11.63
2022-12-25T10:17:33.958Z,10.50
2022-12-25T10:20:03.449Z,7.73
2022-12-25T10:22:31.691Z,10.37
2022-12-25T10:24:55.297Z,7.57
2022-12-25T10:27:37.652Z,8.90
2022-12-25T10:30:00.710Z,11.10
2022-12-25T10:32:23.337Z,9.03
2022-12-25T10:34:45.615Z,11.43
2022-12-25T10:37:07.876Z,9.67
2022-12-25T10:39:30.213Z,8.97
2022-12-25T10:42:11.156Z,9.60
2022-12-25T10:44:34.571Z,9.50
2022-12-25T10:47:01.001Z,6.90
2022-12-25T10:49:24.747Z,7.40
2022-12-25T10:51:47.094Z,6.87
2022-12-25T10:54:21.866Z,6.13
2022-12-25T10:56:53.272Z,9.13
2022-12-25T10:59:15.609Z,11.93
2022-12-25T11:01:38.051Z,11.73
2022-12-25T11:04:00.544Z,9.47
2022-12-25T11:06:27.690Z,8.37
2022-12-25T11:08:57.428Z,12.57
2022-12-25T11:11:20.664Z,11.10
2022-12-25T11:13:49.410Z,10.23
2022-12-25T11:16:15.735Z,7.47
2022-12-25T11:19:04.129Z,10.77
2022-12-25T11:21:33.918Z,11.27
2022-12-25T11:23:57.693Z,12.13
2022-12-25T11:26:19.967Z,9.23
2022-12-25T11:28:43.197Z,10.47
2022-12-25T11:31:09.816Z,12.00
2022-12-25T11:33:35.480Z,14.27
2022-12-25T11:35:58.885Z,9.73
2022-12-25T11:38:21.217Z,11.90
2022-12-25T11:40:46.977Z,13.87
2022-12-25T11:43:15.540Z,11.20
2022-12-25T11:45:44.970Z,15.07
2022-12-25T11:48:27.496Z,10.40
2022-12-25T11:50:54.702Z,10.97
2022-12-25T11:53:26.053Z,10.73
2022-12-25T11:55:59.788Z,12.00
2022-12-25T11:58:25.162Z,11.33
2022-12-25T12:00:48.266Z,13.20
2022-12-25T12:03:22.658Z,13.03
2022-12-25T12:05:46.704Z,10.27
2022-12-25T12:08:09.350Z,10.47
2022-12-25T12:10:50.538Z,10.33
2022-12-25T12:13:31.203Z,13.47
2022-12-25T12:15:53.457Z,11.07
2022-12-25T12:18:18.708Z,13.57
2022-12-25T12:20:40.973Z,13.27
2022-12-25T12:23:05.219Z,11.47
2022-12-25T12:25:27.848Z,15.00
2022-12-25T12:28:03.039Z,12.33
2022-12-25T12:30:28.863Z,11.13
2022-12-25T12:32:52.609Z,13.73
2022-12-25T12:35:21.078Z,11.77
2022-12-25T12:37:45.665Z,11.73
2022-12-25T12:40:09.879Z,14.33
2022-12-25T12:42:33.532Z,17.10
2022-12-25T12:44:57.554Z,11.07
2022-12-25T12:47:30.316Z,10.43
2022-12-25T12:55:55.845Z,14.00
2022-12-25T12:58:33.638Z,11.23
2022-12-25T13:01:01.441Z,9.93
2022-12-25T13:03:33.586Z,14.73
2022-12-25T13:06:01.533Z,12.57
2022-12-25T13:09:07.505Z,10.07
2022-12-25T13:14:38.067Z,9.90
2022-12-25T13:17:00.519Z,10.30
2022-12-25T13:19:23.901Z,11.10
2022-12-25T13:21:56.505Z,10.73
2022-12-25T13:24:20.691Z,12.10
2022-12-25T13:26:42.979Z,11.23
2022-12-25T13:29:11.218Z,10.60
2022-12-25T13:31:34.577Z,11.80
2022-12-25T13:33:58.593Z,10.93
2022-12-25T13:36:21.081Z,11.03
2022-12-25T13:38:51.093Z,10.47
2022-12-25T13:41:36.115Z,12.07
2022-12-25T13:43:59.068Z,12.23
2022-12-25T13:46:25.892Z,9.33
2022-12-25T13:48:56.311Z,9.27
2022-12-25T13:51:21.225Z,10.07
2022-12-25T13:53:44.487Z,10.37
2022-12-25T13:56:06.970Z,10.03
2022-12-25T13:58:30.839Z,9.47
2022-12-25T14:00:54.884Z,10.07
2022-12-25T14:03:19.897Z,11.53
2022-12-25T14:05:43.688Z,9.60
2022-12-25T14:08:13.974Z,8.87
2022-12-25T14:10:38.592Z,10.00
2022-12-25T14:13:02.935Z,10.50
2022-12-25T14:15:47.896Z,9.43
2022-12-25T14:18:16.734Z,7.90
2022-12-25T14:20:41.343Z,8.83
2022-12-25T14:23:05.465Z,7.40
2022-12-25T14:25:44.698Z,9.23
2022-12-25T14:28:09.922Z,9.23
2022-12-25T14:30:32.313Z,8.17
2022-12-25T14:32:55.944Z,11.03
2022-12-25T14:35:23.306Z,9.97
2022-12-25T14:37:46.479Z,7.60
2022-12-25T14:40:30.386Z,7.07
2022-12-25T14:42:57.235Z,9.77
2022-12-25T14:45:25.549Z,7.93
2022-12-25T14:47:55.166Z,8.63
2022-12-25T14:50:25.755Z,7.10
2022-12-25T14:52:48.019Z,10.03
2022-12-25T14:55:18.735Z,6.97
2022-12-25T14:57:41.839Z,9.10
2022-12-25T15:00:09.494Z,9.63
2022-12-25T15:02:36.066Z,8.73
2022-12-25T15:04:58.586Z,7.77
2022-12-25T15:07:31.347Z,6.57
2022-12-25T15:10:18.501Z,7.53
2022-12-25T15:12:38.766Z,7.17
2022-12-25T15:15:01.212Z,6.77
2022-12-25T15:17:27.586Z,7.70
2022-12-25T15:19:49.815Z,8.40
2022-12-25T15:22:13.547Z,8.10
2022-12-25T15:24:36.164Z,7.20
2022-12-25T15:27:00.329Z,7.30
2022-12-25T15:29:44.500Z,9.90
2022-12-25T15:32:05.349Z,10.10
2022-12-25T15:34:29.044Z,6.97
2022-12-25T15:36:54.611Z,9.33
2022-12-25T15:39:16.797Z,8.13
2022-12-25T15:41:58.029Z,8.87
2022-12-25T15:44:20.549Z,10.03
2022-12-25T15:46:43.567Z,11.90
2022-12-25T15:49:06.029Z,9.20
2022-12-25T15:51:28.279Z,8.43
2022-12-25T15:53:50.573Z,8.57
2022-12-25T15:56:13.309Z,9.43
2022-12-25T15:58:35.586Z,10.40
2022-12-25T16:00:57.786Z,8.47
2022-12-25T16:03:20.055Z,9.43
2022-12-25T16:05:42.397Z,9.77
2022-12-25T16:08:04.790Z,9.03
2022-12-25T16:10:27.006Z,9.23
2022-12-25T16:12:49.266Z,9.90
2022-12-25T16:15:12.829Z,9.83
2022-12-25T16:17:35.001Z,9.77
2022-12-25T16:19:57.181Z,8.57
2022-12-25T16:22:21.655Z,8.97
2022-12-25T16:24:44.022Z,8.70
2022-12-25T16:27:06.277Z,10.50
2022-12-25T16:29:28.466Z,7.40
2022-12-25T16:31:50.738Z,8.90
2022-12-25T16:34:13.127Z,9.83
2022-12-25T16:36:35.811Z,10.67
2022-12-25T16:38:58.086Z,8.40
2022-12-25T16:41:20.554Z,10.23
2022-12-25T16:43:44.076Z,9.73
2022-12-25T16:46:10.499Z,8.77
2022-12-25T16:48:35.129Z,8.13
2022-12-25T16:51:00.309Z,7.13
2022-12-25T16:53:22.706Z,7.83
2022-12-25T16:55:45.200Z,7.77
2022-12-25T16:58:07.767Z,10.37
2022-12-25T17:00:30.034Z,8.33
2022-12-25T17:02:52.816Z,6.87
2022-12-25T17:05:15.447Z,7.60
2022-12-25T17:07:38.408Z,8.00
2022-12-25T17:10:00.712Z,7.67
2022-12-25T17:12:23.065Z,7.03
2022-12-25T17:14:45.509Z,7.33
2022-12-25T17:17:07.928Z,7.77
2022-12-25T17:19:30.354Z,8.00
2022-12-25T17:21:54.668Z,6.60
2022-12-25T17:24:17.001Z,6.77
2022-12-25T17:26:41.440Z,7.77
2022-12-25T17:29:03.921Z,7.97
2022-12-25T17:31:26.489Z,8.80
2022-12-25T17:33:48.789Z,7.57
2022-12-25T17:36:12.168Z,7.20
2022-12-25T17:38:34.858Z,7.57
2022-12-25T17:40:58.042Z,8.47
2022-12-25T17:43:21.166Z,9.10
2022-12-25T17:45:43.651Z,6.50
2022-12-25T17:48:05.899Z,9.73
2022-12-25T17:50:28.117Z,6.40
2022-12-25T17:52:50.361Z,7.17
2022-12-25T17:55:12.561Z,6.63
2022-12-25T17:57:34.830Z,7.57
2022-12-25T17:59:57.050Z,8.50
2022-12-25T18:02:19.846Z,7.97
2022-12-25T18:04:42.214Z,6.57
2022-12-25T18:07:04.424Z,8.53
2022-12-25T18:09:26.767Z,8.83
2022-12-25T18:11:49.076Z,8.03
2022-12-25T18:14:13.524Z,6.67
2022-12-25T18:16:38.820Z,6.87
2022-12-25T18:19:01.392Z,8.80
2022-12-25T18:21:23.711Z,8.67
2022-12-25T18:23:46.459Z,7.80
2022-12-25T18:26:11.847Z,9.00
2022-12-25T18:28:34.873Z,8.60
2022-12-25T18:30:57.319Z,6.13
2022-12-25T18:33:19.545Z,6.90
2022-12-25T18:35:43.496Z,7.40
2022-12-25T18:38:06.303Z,5.60
2022-12-25T18:40:28.648Z,5.80
2022-12-25T18:42:59.366Z,5.30
2022-12-25T18:45:25.280Z,4.87
2022-12-25T18:47:48.040Z,8.80
2022-12-25T18:50:10.700Z,7.10
2022-12-25T18:52:47.970Z,5.23
2022-12-25T18:55:12.705Z,5.80
2022-12-25T18:57:35.172Z,10.43
2022-12-25T18:59:57.366Z,5.17
2022-12-25T19:02:19.961Z,6.37
2022-12-25T19:04:45.678Z,5.87
2022-12-25T19:07:07.934Z,4.93
2022-12-25T19:09:31.289Z,5.73
2022-12-25T19:11:55.820Z,3.67
2022-12-25T19:14:18.461Z,4.57
2022-12-25T19:16:41.718Z,5.90
2022-12-25T19:19:04.263Z,5.10
2022-12-25T19:21:26.433Z,4.83
2022-12-25T19:23:48.773Z,5.33
2022-12-25T19:26:11.500Z,4.53
2022-12-25T19:28:34.204Z,4.83
2022-12-25T19:30:59.424Z,4.77
2022-12-25T19:33:22.805Z,5.10
2022-12-25T19:35:46.861Z,4.40
2022-12-25T19:38:09.192Z,5.03
2022-12-25T19:40:31.429Z,7.37
2022-12-25T19:42:54.080Z,4.60
2022-12-25T19:45:16.345Z,6.73
2022-12-25T19:47:38.864Z,6.00
2022-12-25T19:50:03.417Z,5.80
2022-12-25T19:52:26.085Z,4.87
2022-12-25T19:54:52.327Z,4.70
2022-12-25T19:57:14.636Z,4.87
2022-12-25T19:59:36.906Z,7.30
2022-12-25T20:01:59.259Z,5.33
2022-12-25T20:04:27.026Z,7.70
2022-12-25T20:06:49.292Z,5.10
2022-12-25T20:09:16.987Z,7.13
2022-12-25T20:11:41.252Z,5.90
2022-12-25T20:14:03.667Z,10.30
2022-12-25T20:16:26.421Z,5.00
2022-12-25T20:18:48.713Z,4.23
2022-12-25T20:21:15.349Z,4.57
2022-12-25T20:23:37.630Z,4.37
2022-12-25T20:26:01.159Z,5.53
2022-12-25T20:28:23.525Z,3.40
2022-12-25T20:30:45.868Z,4.63
2022-12-25T20:33:08.179Z,3.40
2022-12-25T20:35:30.365Z,3.80
2022-12-25T20:37:52.696Z,6.33
2022-12-25T20:40:15.192Z,5.43
2022-12-25T20:42:37.500Z,4.97
2022-12-25T20:44:59.805Z,3.40
2022-12-25T20:47:23.242Z,6.33
2022-12-25T20:49:47.374Z,4.37
2022-12-25T20:52:09.841Z,5.57
2022-12-25T20:54:32.052Z,4.30
2022-12-25T20:56:54.330Z,6.97
2022-12-25T20:59:16.844Z,5.30
2022-12-25T21:01:39.167Z,4.53
2022-12-25T21:04:01.532Z,4.00
2022-12-25T21:06:24.334Z,4.60
2022-12-25T21:08:46.620Z,4.60
2022-12-25T21:11:09.219Z,5.63
2022-12-25T21:13:33.997Z,7.17
2022-12-25T21:15:56.458Z,5.83
2022-12-25T21:18:20.384Z,3.97
2022-12-25T21:20:47.822Z,4.03
2022-12-25T21:23:10.132Z,6.00
2022-12-25T21:25:32.436Z,3.97
2022-12-25T21:27:54.677Z,4.03
2022-12-25T21:30:17.131Z,3.83
2022-12-25T21:32:57.965Z,5.43
2022-12-25T21:35:21.736Z,4.00
2022-12-25T21:37:45.408Z,3.93
2022-12-25T21:40:12.771Z,4.23
2022-12-25T21:42:38.366Z,10.40
2022-12-25T21:45:00.754Z,5.80
2022-12-25T21:47:23.008Z,3.90
2022-12-25T21:50:04.172Z,5.10
2022-12-25T21:52:26.845Z,5.93
2022-12-25T21:54:53.371Z,3.80
2022-12-25T21:57:15.738Z,5.90
2022-12-25T21:59:39.472Z,5.67
2022-12-25T22:02:02.728Z,4.30
2022-12-25T22:04:25.004Z,5.70
2022-12-25T22:07:07.668Z,4.30
2022-12-25T22:09:30.179Z,3.83
2022-12-25T22:12:11.350Z,5.20
2022-12-25T22:14:59.353Z,4.63
2022-12-25T22:17:42.924Z,5.43
2022-12-25T22:20:09.540Z,4.40
2022-12-25T22:22:33.161Z,3.70
2022-12-25T22:24:58.246Z,3.77
2022-12-25T22:27:20.836Z,3.53
2022-12-25T22:29:46.648Z,9.40
2022-12-25T22:32:09.531Z,3.30
2022-12-25T22:34:31.939Z,7.10
2022-12-25T22:36:54.720Z,5.30
2022-12-25T22:39:17.422Z,5.77
2022-12-25T22:41:40.908Z,3.37
2022-12-25T22:44:20.389Z,4.67
2022-12-25T22:46:43.859Z,5.03
2022-12-25T22:49:06.281Z,4.23
2022-12-25T22:51:31.048Z,4.17
2022-12-25T22:53:54.222Z,3.90
2022-12-25T22:56:18.790Z,4.23
2022-12-25T22:58:41.033Z,8.77
2022-12-25T23:01:03.339Z,5.87
2022-12-25T23:03:27.064Z,5.17
2022-12-25T23:05:56.360Z,4.00
2022-12-25T23:08:20.101Z,5.23
2022-12-25T23:10:42.440Z,4.07
2022-12-25T23:13:23.375Z,7.23
2022-12-25T23:15:47.355Z,6.10
2022-12-25T23:18:28.998Z,7.87
2022-12-25T23:21:17.569Z,4.67
2022-12-25T23:23:58.776Z,4.00
2022-12-25T23:26:21.985Z,4.83
2022-12-25T23:29:02.997Z,4.57
2022-12-25T23:31:33.844Z,6.63
2022-12-25T23:33:56.345Z,5.87
2022-12-25T23:36:18.736Z,4.90
2022-12-25T23:38:41.061Z,5.10
2022-12-25T23:41:03.500Z,5.07
2022-12-25T23:43:25.822Z,4.77
2022-12-25T23:45:48.172Z,7.13
2022-12-25T23:48:10.576Z,4.60
2022-12-25T23:50:33.067Z,7.67
2022-12-25T23:52:55.404Z,4.40
2022-12-25T23:55:18.045Z,4.87
2022-12-25T23:57:40.318Z,4.57
